Terminal Aerodrome Forecast
Issued by NWS

Home | Current Version | Previous Version | Text Only | Print | Product List | Glossary On
Versions: 1 2 3 4 5 6 7 8 9 10 11 12
000
FTUS42 TJSJ 030529
TAFNCM
TAF
TNCM 030529Z 0306/0406 10004KT P6SM FEW018
     FM031300 14009KT P6SM FEW022
     FM032300 08004KT P6SM FEW020=

USA.gov is the U.S. government's official web portal to all federal, state and local government web resources and services.